Belleville, KS

5:02 AM CDT on April 02, 2015 (GMT -0500)
2 S of Pawnee | | Change Station
CLOSE
Current Station
Personal Weather Station
Location: Courtland, KS
Elevation: 1565 ft
Nearby Weather Stations

Elev 1565 ft 39.89 °N, 97.85 °W | Updated 3 seconds ago

Mostly Cloudy
Mostly Cloudy
51.6 °F
Feels Like 51.6 °F
N
0.0
Wind Variable Wind from North
Gusts 0.0 mph

Today
High -- | Low -- °F
--% Chance of Precip.
Yesterday
High -- | Low -- °F
Precip. -- in
7:13 AM 7:55 PM
Waxing Gibbous, 96% visible
Pressure 29.73 in
Visibility 10.0 miles
Clouds Scattered Clouds 11000 ft
Dew Point 46 °F
Humidity 82%
Rainfall 0.05 in
Snow Depth Not available.
UV 0 out of 12
Pollen 10.10 out of 12
Air Quality Not available.
Flu Activity Not available.
METAR KCNK 020955Z AUTO 03008KT 10SM SCT110 12/08 A2977 RMK AO2 SLP068 T01170083

More Conditions Fewer Conditions

Pressure 29.73 in
Visibility 10.0 miles
Clouds Scattered Clouds 11000 ft
Dew Point 46 °F
Humidity 82%
Rainfall 0.05 in
Snow Depth Not available.
UV 0 out of 12
Pollen 10.10 out of 12
Air Quality Not available.
Flu Activity Not available.
METAR KCNK 020955Z AUTO 03008KT 10SM SCT110 12/08 A2977 RMK AO2 SLP068 T01170083

More Conditions Fewer Conditions

10-Day Weather Forecast

Almanac

Astronomy

Apr. 02, 2015 Rise Set
Actual Time
Civil Twilight
Nautical Twilight
Astronomical Twilight
Moon
Length of Visible Light
Length of Day
Tomorrow will be .
, % of the Moon is Illuminated

Today's Extremes

State Highs State Lows

Community

WunderPhotos

Upload Photos

1,810,216 photos uploaded!

WunderBlogs® & News

Nearby

Air Quality

  Air Quality AQ Index Pollutant
Not available.

Snow Depth

Station Depth Elevation

Earthquake Activity

City Distance Mag. Time & Date
Minimum magnitude displayed is 2.5.

Coastal Water Temperatures

Place Temperature

Stations

Nearby Weather Stations

Station Location Temp. Windchill Dew Point Humidity Wind Precip. Elev Updated Type